sensor_id;sensor_type;location;lat;lon;timestamp;temperature;humidity
76897;SHT30;65856;52.178;21.176;2023-02-01T00:00:34;4.37;80.71
76897;SHT30;65856;52.178;21.176;2023-02-01T00:03:05;4.38;80.68
76897;SHT30;65856;52.178;21.176;2023-02-01T00:05:36;4.36;80.66
76897;SHT30;65856;52.178;21.176;2023-02-01T00:08:07;4.33;80.71
76897;SHT30;65856;52.178;21.176;2023-02-01T00:10:38;4.30;80.71
76897;SHT30;65856;52.178;21.176;2023-02-01T00:13:09;4.34;80.77
76897;SHT30;65856;52.178;21.176;2023-02-01T00:15:39;4.36;80.72
76897;SHT30;65856;52.178;21.176;2023-02-01T00:18:10;4.36;80.71
76897;SHT30;65856;52.178;21.176;2023-02-01T00:20:40;4.39;80.77
76897;SHT30;65856;52.178;21.176;2023-02-01T00:23:15;4.41;80.75
76897;SHT30;65856;52.178;21.176;2023-02-01T00:25:45;4.42;80.70
76897;SHT30;65856;52.178;21.176;2023-02-01T00:28:16;4.45;80.70
76897;SHT30;65856;52.178;21.176;2023-02-01T00:30:47;4.45;80.70
76897;SHT30;65856;52.178;21.176;2023-02-01T00:33:26;4.44;80.70
76897;SHT30;65856;52.178;21.176;2023-02-01T00:35:58;4.44;80.71
76897;SHT30;65856;52.178;21.176;2023-02-01T00:38:31;4.40;80.78
76897;SHT30;65856;52.178;21.176;2023-02-01T00:41:04;4.36;80.88
76897;SHT30;65856;52.178;21.176;2023-02-01T00:43:38;4.35;81.07
76897;SHT30;65856;52.178;21.176;2023-02-01T00:46:09;4.30;81.14
76897;SHT30;65856;52.178;21.176;2023-02-01T00:48:42;4.28;81.14
76897;SHT30;65856;52.178;21.176;2023-02-01T00:51:13;4.31;81.15
76897;SHT30;65856;52.178;21.176;2023-02-01T00:53:47;4.32;81.09
76897;SHT30;65856;52.178;21.176;2023-02-01T00:56:18;4.33;81.04
76897;SHT30;65856;52.178;21.176;2023-02-01T00:58:49;4.31;81.09
76897;SHT30;65856;52.178;21.176;2023-02-01T01:01:20;4.30;81.02
76897;SHT30;65856;52.178;21.176;2023-02-01T01:03:55;4.32;81.01
76897;SHT30;65856;52.178;21.176;2023-02-01T01:06:27;4.32;81.02
76897;SHT30;65856;52.178;21.176;2023-02-01T01:09:02;4.32;80.91
76897;SHT30;65856;52.178;21.176;2023-02-01T01:11:34;4.36;81.00
76897;SHT30;65856;52.178;21.176;2023-02-01T01:14:06;4.37;80.98
76897;SHT30;65856;52.178;21.176;2023-02-01T01:16:38;4.37;80.70
76897;SHT30;65856;52.178;21.176;2023-02-01T01:19:08;4.34;80.50
76897;SHT30;65856;52.178;21.176;2023-02-01T01:21:39;4.34;80.42
76897;SHT30;65856;52.178;21.176;2023-02-01T01:24:09;4.34;80.29
76897;SHT30;65856;52.178;21.176;2023-02-01T01:26:40;4.36;80.22
76897;SHT30;65856;52.178;21.176;2023-02-01T01:29:10;4.36;80.09
76897;SHT30;65856;52.178;21.176;2023-02-01T01:31:41;4.35;79.97
76897;SHT30;65856;52.178;21.176;2023-02-01T01:34:11;4.33;79.88
76897;SHT30;65856;52.178;21.176;2023-02-01T01:36:42;4.30;79.64
76897;SHT30;65856;52.178;21.176;2023-02-01T01:39:12;4.26;79.50
76897;SHT30;65856;52.178;21.176;2023-02-01T01:41:42;4.24;79.41
76897;SHT30;65856;52.178;21.176;2023-02-01T01:47:26;4.20;79.27
76897;SHT30;65856;52.178;21.176;2023-02-01T01:50:01;4.22;79.31
76897;SHT30;65856;52.178;21.176;2023-02-01T01:52:35;4.24;79.23
76897;SHT30;65856;52.178;21.176;2023-02-01T01:55:08;4.24;79.22
76897;SHT30;65856;52.178;21.176;2023-02-01T01:57:42;4.23;79.19
76897;SHT30;65856;52.178;21.176;2023-02-01T02:00:14;4.20;79.04
76897;SHT30;65856;52.178;21.176;2023-02-01T02:02:50;4.19;79.10
76897;SHT30;65856;52.178;21.176;2023-02-01T02:05:29;4.20;79.01
76897;SHT30;65856;52.178;21.176;2023-02-01T02:08:00;4.20;78.98
76897;SHT30;65856;52.178;21.176;2023-02-01T02:10:31;4.19;78.99
76897;SHT30;65856;52.178;21.176;2023-02-01T02:13:21;4.19;78.80
76897;SHT30;65856;52.178;21.176;2023-02-01T02:15:55;4.20;78.65
76897;SHT30;65856;52.178;21.176;2023-02-01T02:18:44;4.20;78.53
76897;SHT30;65856;52.178;21.176;2023-02-01T02:21:41;4.21;78.51
76897;SHT30;65856;52.178;21.176;2023-02-01T02:28:25;4.24;78.36
76897;SHT30;65856;52.178;21.176;2023-02-01T02:31:36;4.26;78.10
76897;SHT30;65856;52.178;21.176;2023-02-01T02:34:23;4.25;77.79
76897;SHT30;65856;52.178;21.176;2023-02-01T02:37:01;4.26;77.64
76897;SHT30;65856;52.178;21.176;2023-02-01T02:39:45;4.27;77.54
76897;SHT30;65856;52.178;21.176;2023-02-01T02:42:27;4.25;77.37
76897;SHT30;65856;52.178;21.176;2023-02-01T02:45:21;4.22;77.27
76897;SHT30;65856;52.178;21.176;2023-02-01T02:48:17;4.18;77.24
76897;SHT30;65856;52.178;21.176;2023-02-01T02:50:58;4.15;77.07
76897;SHT30;65856;52.178;21.176;2023-02-01T02:53:53;4.11;77.03
76897;SHT30;65856;52.178;21.176;2023-02-01T02:56:49;4.11;77.08
76897;SHT30;65856;52.178;21.176;2023-02-01T02:59:41;4.10;77.08
76897;SHT30;65856;52.178;21.176;2023-02-01T03:02:32;4.14;77.00
76897;SHT30;65856;52.178;21.176;2023-02-01T03:05:22;4.15;76.93
76897;SHT30;65856;52.178;21.176;2023-02-01T03:08:02;4.16;76.89
76897;SHT30;65856;52.178;21.176;2023-02-01T03:10:42;4.16;76.93
76897;SHT30;65856;52.178;21.176;2023-02-01T03:13:22;4.16;77.10
76897;SHT30;65856;52.178;21.176;2023-02-01T03:16:04;4.15;77.19
76897;SHT30;65856;52.178;21.176;2023-02-01T03:18:44;4.15;77.20
76897;SHT30;65856;52.178;21.176;2023-02-01T03:21:21;4.15;77.24
76897;SHT30;65856;52.178;21.176;2023-02-01T03:23:59;4.16;77.25
76897;SHT30;65856;52.178;21.176;2023-02-01T03:26:37;4.15;77.30
76897;SHT30;65856;52.178;21.176;2023-02-01T03:29:14;4.16;77.30
76897;SHT30;65856;52.178;21.176;2023-02-01T03:31:50;4.16;77.35
76897;SHT30;65856;52.178;21.176;2023-02-01T03:34:20;4.18;77.34
76897;SHT30;65856;52.178;21.176;2023-02-01T03:36:52;4.19;77.41
76897;SHT30;65856;52.178;21.176;2023-02-01T03:39:32;4.19;77.46
76897;SHT30;65856;52.178;21.176;2023-02-01T03:42:09;4.21;77.49
76897;SHT30;65856;52.178;21.176;2023-02-01T03:44:48;4.23;77.61
76897;SHT30;65856;52.178;21.176;2023-02-01T03:47:26;4.24;78.00
76897;SHT30;65856;52.178;21.176;2023-02-01T03:50:02;4.23;78.24
76897;SHT30;65856;52.178;21.176;2023-02-01T03:52:41;4.22;78.43
76897;SHT30;65856;52.178;21.176;2023-02-01T03:55:18;4.24;78.50
76897;SHT30;65856;52.178;21.176;2023-02-01T03:57:53;4.23;78.50
76897;SHT30;65856;52.178;21.176;2023-02-01T04:00:29;4.21;78.50
76897;SHT30;65856;52.178;21.176;2023-02-01T04:03:00;4.18;78.54
76897;SHT30;65856;52.178;21.176;2023-02-01T04:05:32;4.17;78.61
76897;SHT30;65856;52.178;21.176;2023-02-01T04:08:03;4.19;78.71
76897;SHT30;65856;52.178;21.176;2023-02-01T04:10:34;4.22;78.72
76897;SHT30;65856;52.178;21.176;2023-02-01T04:13:04;4.22;78.63
76897;SHT30;65856;52.178;21.176;2023-02-01T04:15:35;4.20;78.69
76897;SHT30;65856;52.178;21.176;2023-02-01T04:18:06;4.16;78.85
76897;SHT30;65856;52.178;21.176;2023-02-01T04:20:37;4.13;78.99
76897;SHT30;65856;52.178;21.176;2023-02-01T04:23:07;4.11;78.98
76897;SHT30;65856;52.178;21.176;2023-02-01T04:25:38;4.09;78.92
76897;SHT30;65856;52.178;21.176;2023-02-01T04:28:08;4.04;78.90
76897;SHT30;65856;52.178;21.176;2023-02-01T04:30:38;4.05;78.82
76897;SHT30;65856;52.178;21.176;2023-02-01T04:33:09;4.02;78.80
76897;SHT30;65856;52.178;21.176;2023-02-01T04:35:40;4.03;78.85
76897;SHT30;65856;52.178;21.176;2023-02-01T04:38:11;4.04;78.78
76897;SHT30;65856;52.178;21.176;2023-02-01T04:40:41;4.05;78.68
76897;SHT30;65856;52.178;21.176;2023-02-01T04:43:13;4.04;78.50
76897;SHT30;65856;52.178;21.176;2023-02-01T04:45:42;4.03;78.50
76897;SHT30;65856;52.178;21.176;2023-02-01T04:48:18;4.03;78.41
76897;SHT30;65856;52.178;21.176;2023-02-01T04:50:49;4.06;78.34
76897;SHT30;65856;52.178;21.176;2023-02-01T04:53:20;4.07;78.26
76897;SHT30;65856;52.178;21.176;2023-02-01T04:55:50;4.10;78.20
76897;SHT30;65856;52.178;21.176;2023-02-01T04:58:21;4.12;78.14
76897;SHT30;65856;52.178;21.176;2023-02-01T05:00:51;4.14;78.00
76897;SHT30;65856;52.178;21.176;2023-02-01T05:03:22;4.14;77.87
76897;SHT30;65856;52.178;21.176;2023-02-01T05:05:52;4.15;77.88
76897;SHT30;65856;52.178;21.176;2023-02-01T05:08:23;4.14;77.73
76897;SHT30;65856;52.178;21.176;2023-02-01T05:10:55;4.15;77.76
76897;SHT30;65856;52.178;21.176;2023-02-01T05:13:28;4.16;77.76
76897;SHT30;65856;52.178;21.176;2023-02-01T05:16:17;4.16;77.58
76897;SHT30;65856;52.178;21.176;2023-02-01T05:18:48;4.16;77.58
76897;SHT30;65856;52.178;21.176;2023-02-01T05:21:18;4.16;77.58
76897;SHT30;65856;52.178;21.176;2023-02-01T05:23:49;4.17;77.55
76897;SHT30;65856;52.178;21.176;2023-02-01T05:26:39;4.17;77.38
76897;SHT30;65856;52.178;21.176;2023-02-01T05:29:10;4.17;77.30
76897;SHT30;65856;52.178;21.176;2023-02-01T05:31:43;4.17;77.25
76897;SHT30;65856;52.178;21.176;2023-02-01T05:34:14;4.17;77.16
76897;SHT30;65856;52.178;21.176;2023-02-01T05:36:45;4.18;77.08
76897;SHT30;65856;52.178;21.176;2023-02-01T05:39:15;4.19;77.09
76897;SHT30;65856;52.178;21.176;2023-02-01T05:41:46;4.19;77.08
76897;SHT30;65856;52.178;21.176;2023-02-01T05:44:16;4.22;77.08
76897;SHT30;65856;52.178;21.176;2023-02-01T05:46:47;4.24;77.01
76897;SHT30;65856;52.178;21.176;2023-02-01T05:49:18;4.24;76.97
76897;SHT30;65856;52.178;21.176;2023-02-01T05:51:49;4.25;76.82
76897;SHT30;65856;52.178;21.176;2023-02-01T05:54:19;4.26;76.79
76897;SHT30;65856;52.178;21.176;2023-02-01T05:56:50;4.26;76.80
76897;SHT30;65856;52.178;21.176;2023-02-01T05:59:20;4.25;76.73
76897;SHT30;65856;52.178;21.176;2023-02-01T06:01:51;4.23;76.61
76897;SHT30;65856;52.178;21.176;2023-02-01T06:04:21;4.21;76.60
76897;SHT30;65856;52.178;21.176;2023-02-01T06:06:52;4.20;76.56
76897;SHT30;65856;52.178;21.176;2023-02-01T06:09:22;4.20;76.54
76897;SHT30;65856;52.178;21.176;2023-02-01T06:11:54;4.22;76.64
76897;SHT30;65856;52.178;21.176;2023-02-01T06:14:24;4.24;76.61
76897;SHT30;65856;52.178;21.176;2023-02-01T06:16:54;4.29;76.62
76897;SHT30;65856;52.178;21.176;2023-02-01T06:19:25;4.32;76.52
76897;SHT30;65856;52.178;21.176;2023-02-01T06:25:37;4.31;76.43
76897;SHT30;65856;52.178;21.176;2023-02-01T06:28:07;4.27;76.45
76897;SHT30;65856;52.178;21.176;2023-02-01T06:30:38;4.26;76.47
76897;SHT30;65856;52.178;21.176;2023-02-01T06:33:12;4.25;76.51
76897;SHT30;65856;52.178;21.176;2023-02-01T06:35:43;4.22;76.36
76897;SHT30;65856;52.178;21.176;2023-02-01T06:38:14;4.22;76.41
76897;SHT30;65856;52.178;21.176;2023-02-01T06:40:44;4.22;76.40
76897;SHT30;65856;52.178;21.176;2023-02-01T06:43:24;4.22;76.47
76897;SHT30;65856;52.178;21.176;2023-02-01T06:46:00;4.26;76.47
76897;SHT30;65856;52.178;21.176;2023-02-01T06:48:34;4.31;76.41
76897;SHT30;65856;52.178;21.176;2023-02-01T06:51:04;4.34;76.41
76897;SHT30;65856;52.178;21.176;2023-02-01T06:53:47;4.39;76.47
76897;SHT30;65856;52.178;21.176;2023-02-01T06:56:18;4.42;76.25
76897;SHT30;65856;52.178;21.176;2023-02-01T06:58:49;4.42;76.13
76897;SHT30;65856;52.178;21.176;2023-02-01T07:01:20;4.40;76.17
76897;SHT30;65856;52.178;21.176;2023-02-01T07:03:50;4.39;76.21
76897;SHT30;65856;52.178;21.176;2023-02-01T07:06:21;4.39;76.30
76897;SHT30;65856;52.178;21.176;2023-02-01T07:08:52;4.42;76.28
76897;SHT30;65856;52.178;21.176;2023-02-01T07:11:23;4.42;76.09
76897;SHT30;65856;52.178;21.176;2023-02-01T07:13:54;4.43;75.96
76897;SHT30;65856;52.178;21.176;2023-02-01T07:16:25;4.42;75.90
76897;SHT30;65856;52.178;21.176;2023-02-01T07:18:57;4.44;75.83
76897;SHT30;65856;52.178;21.176;2023-02-01T07:21:28;4.45;75.80
76897;SHT30;65856;52.178;21.176;2023-02-01T07:23:58;4.46;75.81
76897;SHT30;65856;52.178;21.176;2023-02-01T07:26:29;4.48;75.71
76897;SHT30;65856;52.178;21.176;2023-02-01T07:28:59;4.47;75.66
76897;SHT30;65856;52.178;21.176;2023-02-01T07:31:30;4.46;75.57
76897;SHT30;65856;52.178;21.176;2023-02-01T07:34:00;4.44;75.56
76897;SHT30;65856;52.178;21.176;2023-02-01T07:36:31;4.43;75.53
76897;SHT30;65856;52.178;21.176;2023-02-01T07:39:02;4.42;75.46
76897;SHT30;65856;52.178;21.176;2023-02-01T07:41:33;4.43;75.46
76897;SHT30;65856;52.178;21.176;2023-02-01T07:44:03;4.43;75.70
76897;SHT30;65856;52.178;21.176;2023-02-01T07:46:34;4.42;75.86
76897;SHT30;65856;52.178;21.176;2023-02-01T07:49:05;4.43;75.89
76897;SHT30;65856;52.178;21.176;2023-02-01T07:51:36;4.43;75.74
76897;SHT30;65856;52.178;21.176;2023-02-01T07:54:07;4.44;75.80
76897;SHT30;65856;52.178;21.176;2023-02-01T07:56:37;4.48;75.99
76897;SHT30;65856;52.178;21.176;2023-02-01T07:59:08;4.51;75.91
76897;SHT30;65856;52.178;21.176;2023-02-01T08:01:38;4.55;75.83
76897;SHT30;65856;52.178;21.176;2023-02-01T08:04:10;4.67;75.94
76897;SHT30;65856;52.178;21.176;2023-02-01T08:06:42;4.70;75.56
76897;SHT30;65856;52.178;21.176;2023-02-01T08:09:12;4.67;75.74
76897;SHT30;65856;52.178;21.176;2023-02-01T08:11:43;4.67;76.06
76897;SHT30;65856;52.178;21.176;2023-02-01T08:14:14;4.66;76.27
76897;SHT30;65856;52.178;21.176;2023-02-01T08:16:44;4.63;76.42
76897;SHT30;65856;52.178;21.176;2023-02-01T08:19:23;4.63;76.73
76897;SHT30;65856;52.178;21.176;2023-02-01T08:22:07;4.60;76.99
76897;SHT30;65856;52.178;21.176;2023-02-01T08:24:37;4.58;77.04
76897;SHT30;65856;52.178;21.176;2023-02-01T08:27:08;4.60;77.18
76897;SHT30;65856;52.178;21.176;2023-02-01T08:29:39;4.63;77.10
76897;SHT30;65856;52.178;21.176;2023-02-01T08:32:09;4.65;76.98
76897;SHT30;65856;52.178;21.176;2023-02-01T08:34:40;4.64;77.07
76897;SHT30;65856;52.178;21.176;2023-02-01T08:37:10;4.67;77.18
76897;SHT30;65856;52.178;21.176;2023-02-01T08:39:41;4.68;77.33
76897;SHT30;65856;52.178;21.176;2023-02-01T08:42:12;4.68;77.44
76897;SHT30;65856;52.178;21.176;2023-02-01T08:45:01;4.64;77.53
76897;SHT30;65856;52.178;21.176;2023-02-01T08:47:34;4.64;77.48
76897;SHT30;65856;52.178;21.176;2023-02-01T08:50:06;4.66;77.50
76897;SHT30;65856;52.178;21.176;2023-02-01T08:52:41;4.63;77.54
76897;SHT30;65856;52.178;21.176;2023-02-01T08:55:11;4.61;77.55
76897;SHT30;65856;52.178;21.176;2023-02-01T08:57:43;4.59;77.66
76897;SHT30;65856;52.178;21.176;2023-02-01T09:00:14;4.63;77.76
76897;SHT30;65856;52.178;21.176;2023-02-01T09:02:45;4.66;77.78
76897;SHT30;65856;52.178;21.176;2023-02-01T09:05:16;4.63;77.97
76897;SHT30;65856;52.178;21.176;2023-02-01T09:07:48;4.61;78.05
76897;SHT30;65856;52.178;21.176;2023-02-01T09:10:19;4.61;78.01
76897;SHT30;65856;52.178;21.176;2023-02-01T09:12:49;4.64;78.01
76897;SHT30;65856;52.178;21.176;2023-02-01T09:15:20;4.66;77.92
76897;SHT30;65856;52.178;21.176;2023-02-01T09:17:50;4.68;77.72
76897;SHT30;65856;52.178;21.176;2023-02-01T09:20:21;4.70;77.51
76897;SHT30;65856;52.178;21.176;2023-02-01T09:22:51;4.70;77.31
76897;SHT30;65856;52.178;21.176;2023-02-01T09:25:23;4.71;77.06
76897;SHT30;65856;52.178;21.176;2023-02-01T09:27:54;4.72;77.09
76897;SHT30;65856;52.178;21.176;2023-02-01T09:30:24;4.74;76.74
76897;SHT30;65856;52.178;21.176;2023-02-01T09:32:55;4.74;76.54
76897;SHT30;65856;52.178;21.176;2023-02-01T09:35:25;4.80;76.20
76897;SHT30;65856;52.178;21.176;2023-02-01T09:37:56;4.83;75.99
76897;SHT30;65856;52.178;21.176;2023-02-01T09:40:26;4.88;75.90
76897;SHT30;65856;52.178;21.176;2023-02-01T09:43:00;4.92;75.76
76897;SHT30;65856;52.178;21.176;2023-02-01T09:45:48;4.96;75.64
76897;SHT30;65856;52.178;21.176;2023-02-01T09:48:34;4.97;75.68
76897;SHT30;65856;52.178;21.176;2023-02-01T09:51:11;5.03;75.50
76897;SHT30;65856;52.178;21.176;2023-02-01T09:53:52;5.03;75.19
76897;SHT30;65856;52.178;21.176;2023-02-01T09:56:33;5.06;74.91
76897;SHT30;65856;52.178;21.176;2023-02-01T09:59:10;5.09;74.76
76897;SHT30;65856;52.178;21.176;2023-02-01T10:01:57;5.18;74.85
76897;SHT30;65856;52.178;21.176;2023-02-01T10:04:31;5.27;74.80
76897;SHT30;65856;52.178;21.176;2023-02-01T10:07:08;5.33;74.36
76897;SHT30;65856;52.178;21.176;2023-02-01T10:09:54;5.38;73.88
76897;SHT30;65856;52.178;21.176;2023-02-01T10:12:46;5.41;73.89
76897;SHT30;65856;52.178;21.176;2023-02-01T10:15:37;5.44;73.56
76897;SHT30;65856;52.178;21.176;2023-02-01T10:18:25;5.46;73.66
76897;SHT30;65856;52.178;21.176;2023-02-01T10:21:12;5.47;73.58
76897;SHT30;65856;52.178;21.176;2023-02-01T10:24:01;5.46;73.32
76897;SHT30;65856;52.178;21.176;2023-02-01T10:26:47;5.47;73.12
76897;SHT30;65856;52.178;21.176;2023-02-01T10:29:28;5.47;72.99
76897;SHT30;65856;52.178;21.176;2023-02-01T10:32:07;5.50;73.03
76897;SHT30;65856;52.178;21.176;2023-02-01T10:34:44;5.51;72.77
76897;SHT30;65856;52.178;21.176;2023-02-01T10:37:22;5.61;72.61
76897;SHT30;65856;52.178;21.176;2023-02-01T10:39:59;5.60;72.55
76897;SHT30;65856;52.178;21.176;2023-02-01T10:42:43;5.54;72.53
76897;SHT30;65856;52.178;21.176;2023-02-01T10:45:16;5.52;72.66
76897;SHT30;65856;52.178;21.176;2023-02-01T10:47:51;5.48;72.54
76897;SHT30;65856;52.178;21.176;2023-02-01T10:50:29;5.47;72.88
76897;SHT30;65856;52.178;21.176;2023-02-01T10:53:09;5.51;72.99
76897;SHT30;65856;52.178;21.176;2023-02-01T10:55:49;5.57;73.10
76897;SHT30;65856;52.178;21.176;2023-02-01T10:58:25;5.61;72.65
76897;SHT30;65856;52.178;21.176;2023-02-01T11:00:59;5.61;72.52
76897;SHT30;65856;52.178;21.176;2023-02-01T11:03:34;5.63;72.35
76897;SHT30;65856;52.178;21.176;2023-02-01T11:06:13;5.64;72.53
76897;SHT30;65856;52.178;21.176;2023-02-01T11:08:54;5.64;72.46
76897;SHT30;65856;52.178;21.176;2023-02-01T11:11:28;5.64;72.70
76897;SHT30;65856;52.178;21.176;2023-02-01T11:13:59;5.70;72.99
76897;SHT30;65856;52.178;21.176;2023-02-01T11:16:43;5.93;72.85
76897;SHT30;65856;52.178;21.176;2023-02-01T11:19:19;5.99;72.45
76897;SHT30;65856;52.178;21.176;2023-02-01T11:21:50;6.01;72.34
76897;SHT30;65856;52.178;21.176;2023-02-01T11:24:24;6.00;72.24
76897;SHT30;65856;52.178;21.176;2023-02-01T11:27:00;5.99;72.23
76897;SHT30;65856;52.178;21.176;2023-02-01T11:29:40;5.99;72.37
76897;SHT30;65856;52.178;21.176;2023-02-01T11:32:15;6.00;72.22
76897;SHT30;65856;52.178;21.176;2023-02-01T11:34:51;5.98;72.35
76897;SHT30;65856;52.178;21.176;2023-02-01T11:37:28;5.99;72.45
76897;SHT30;65856;52.178;21.176;2023-02-01T11:40:22;5.99;72.40
76897;SHT30;65856;52.178;21.176;2023-02-01T11:42:57;5.97;72.41
76897;SHT30;65856;52.178;21.176;2023-02-01T11:45:35;5.97;72.41
76897;SHT30;65856;52.178;21.176;2023-02-01T11:48:09;5.97;72.39
76897;SHT30;65856;52.178;21.176;2023-02-01T11:50:46;5.99;72.41
76897;SHT30;65856;52.178;21.176;2023-02-01T11:53:28;6.00;72.45
76897;SHT30;65856;52.178;21.176;2023-02-01T11:56:27;5.98;72.27
76897;SHT30;65856;52.178;21.176;2023-02-01T11:59:10;5.93;72.34
76897;SHT30;65856;52.178;21.176;2023-02-01T12:02:02;5.90;72.51
76897;SHT30;65856;52.178;21.176;2023-02-01T12:05:03;5.89;72.58
76897;SHT30;65856;52.178;21.176;2023-02-01T12:07:53;5.89;72.66
76897;SHT30;65856;52.178;21.176;2023-02-01T12:10:41;5.91;72.70
76897;SHT30;65856;52.178;21.176;2023-02-01T12:13:34;5.93;72.62
76897;SHT30;65856;52.178;21.176;2023-02-01T12:16:23;5.91;72.38
76897;SHT30;65856;52.178;21.176;2023-02-01T12:19:09;5.93;72.52
76897;SHT30;65856;52.178;21.176;2023-02-01T12:22:03;5.98;72.52
76897;SHT30;65856;52.178;21.176;2023-02-01T12:24:56;6.02;72.45
76897;SHT30;65856;52.178;21.176;2023-02-01T12:27:47;6.00;72.53
76897;SHT30;65856;52.178;21.176;2023-02-01T12:30:45;5.99;72.72
76897;SHT30;65856;52.178;21.176;2023-02-01T12:33:42;5.95;72.84
76897;SHT30;65856;52.178;21.176;2023-02-01T12:36:28;5.91;72.82
76897;SHT30;65856;52.178;21.176;2023-02-01T12:39:12;5.90;72.87
76897;SHT30;65856;52.178;21.176;2023-02-01T12:42:00;5.89;73.07
76897;SHT30;65856;52.178;21.176;2023-02-01T12:44:39;5.90;73.12
76897;SHT30;65856;52.178;21.176;2023-02-01T12:47:18;5.94;73.32
76897;SHT30;65856;52.178;21.176;2023-02-01T12:49:57;5.90;73.66
76897;SHT30;65856;52.178;21.176;2023-02-01T12:52:35;5.89;73.95
76897;SHT30;65856;52.178;21.176;2023-02-01T12:55:15;5.86;74.17
76897;SHT30;65856;52.178;21.176;2023-02-01T12:57:52;5.87;74.20
76897;SHT30;65856;52.178;21.176;2023-02-01T13:00:32;5.91;74.16
76897;SHT30;65856;52.178;21.176;2023-02-01T13:03:11;5.90;74.16
76897;SHT30;65856;52.178;21.176;2023-02-01T13:06:01;5.94;74.10
76897;SHT30;65856;52.178;21.176;2023-02-01T13:08:38;6.00;74.11
76897;SHT30;65856;52.178;21.176;2023-02-01T13:11:16;6.03;74.15
76897;SHT30;65856;52.178;21.176;2023-02-01T13:13:55;6.07;74.17
76897;SHT30;65856;52.178;21.176;2023-02-01T13:16:35;6.09;74.04
76897;SHT30;65856;52.178;21.176;2023-02-01T13:19:12;6.08;74.00
76897;SHT30;65856;52.178;21.176;2023-02-01T13:21:48;6.09;74.00
76897;SHT30;65856;52.178;21.176;2023-02-01T13:24:33;6.09;73.98
76897;SHT30;65856;52.178;21.176;2023-02-01T13:27:12;6.09;73.89
76897;SHT30;65856;52.178;21.176;2023-02-01T13:29:46;6.04;73.67
76897;SHT30;65856;52.178;21.176;2023-02-01T13:32:31;6.01;73.76
76897;SHT30;65856;52.178;21.176;2023-02-01T13:35:38;6.01;73.69
76897;SHT30;65856;52.178;21.176;2023-02-01T13:38:57;6.01;73.60
76897;SHT30;65856;52.178;21.176;2023-02-01T13:41:54;5.96;73.54
76897;SHT30;65856;52.178;21.176;2023-02-01T13:44:30;5.96;73.71
76897;SHT30;65856;52.178;21.176;2023-02-01T13:47:12;5.93;73.64
76897;SHT30;65856;52.178;21.176;2023-02-01T13:49:53;5.90;73.56
76897;SHT30;65856;52.178;21.176;2023-02-01T13:52:34;5.88;73.74
76897;SHT30;65856;52.178;21.176;2023-02-01T13:58:10;5.85;73.93
76897;SHT30;65856;52.178;21.176;2023-02-01T14:00:48;5.83;74.01
76897;SHT30;65856;52.178;21.176;2023-02-01T14:03:46;5.79;74.02
76897;SHT30;65856;52.178;21.176;2023-02-01T14:09:15;5.73;74.08
76897;SHT30;65856;52.178;21.176;2023-02-01T14:12:04;5.70;74.22
76897;SHT30;65856;52.178;21.176;2023-02-01T14:21:30;5.66;74.30
76897;SHT30;65856;52.178;21.176;2023-02-01T14:24:15;5.64;74.38
76897;SHT30;65856;52.178;21.176;2023-02-01T14:26:52;5.66;74.44
76897;SHT30;65856;52.178;21.176;2023-02-01T14:29:26;5.66;74.39
76897;SHT30;65856;52.178;21.176;2023-02-01T14:32:02;5.67;74.36
76897;SHT30;65856;52.178;21.176;2023-02-01T14:34:40;5.68;74.40
76897;SHT30;65856;52.178;21.176;2023-02-01T14:37:25;5.69;74.40
76897;SHT30;65856;52.178;21.176;2023-02-01T14:39:59;5.67;74.45
76897;SHT30;65856;52.178;21.176;2023-02-01T14:42:37;5.66;74.52
76897;SHT30;65856;52.178;21.176;2023-02-01T14:51:14;5.64;74.50
76897;SHT30;65856;52.178;21.176;2023-02-01T14:53:46;5.62;74.48
76897;SHT30;65856;52.178;21.176;2023-02-01T14:56:17;5.63;74.50
76897;SHT30;65856;52.178;21.176;2023-02-01T14:58:51;5.65;74.44
76897;SHT30;65856;52.178;21.176;2023-02-01T15:01:26;5.67;74.32
76897;SHT30;65856;52.178;21.176;2023-02-01T15:04:03;5.67;74.09
76897;SHT30;65856;52.178;21.176;2023-02-01T15:06:40;5.65;74.01
76897;SHT30;65856;52.178;21.176;2023-02-01T15:09:14;5.64;74.09
76897;SHT30;65856;52.178;21.176;2023-02-01T15:11:58;5.63;74.08
76897;SHT30;65856;52.178;21.176;2023-02-01T15:14:33;5.62;74.11
76897;SHT30;65856;52.178;21.176;2023-02-01T15:17:19;5.60;74.04
76897;SHT30;65856;52.178;21.176;2023-02-01T15:19:56;5.57;74.05
76897;SHT30;65856;52.178;21.176;2023-02-01T15:22:29;5.58;74.14
76897;SHT30;65856;52.178;21.176;2023-02-01T15:25:00;5.56;74.08
76897;SHT30;65856;52.178;21.176;2023-02-01T15:27:32;5.54;74.11
76897;SHT30;65856;52.178;21.176;2023-02-01T15:30:07;5.53;74.02
76897;SHT30;65856;52.178;21.176;2023-02-01T15:32:46;5.52;73.95
76897;SHT30;65856;52.178;21.176;2023-02-01T15:35:33;5.51;73.98
76897;SHT30;65856;52.178;21.176;2023-02-01T15:38:30;5.49;74.07
76897;SHT30;65856;52.178;21.176;2023-02-01T15:41:13;5.51;74.10
76897;SHT30;65856;52.178;21.176;2023-02-01T15:43:47;5.53;74.10
76897;SHT30;65856;52.178;21.176;2023-02-01T15:46:39;5.55;73.99
76897;SHT30;65856;52.178;21.176;2023-02-01T15:49:18;5.56;73.89
76897;SHT30;65856;52.178;21.176;2023-02-01T15:51:55;5.53;73.85
76897;SHT30;65856;52.178;21.176;2023-02-01T15:54:29;5.53;73.89
76897;SHT30;65856;52.178;21.176;2023-02-01T15:57:10;5.51;73.93
76897;SHT30;65856;52.178;21.176;2023-02-01T15:59:56;5.49;74.03
76897;SHT30;65856;52.178;21.176;2023-02-01T16:02:32;5.49;74.10
76897;SHT30;65856;52.178;21.176;2023-02-01T16:05:25;5.50;74.25
76897;SHT30;65856;52.178;21.176;2023-02-01T16:08:06;5.51;74.45
76897;SHT30;65856;52.178;21.176;2023-02-01T16:10:43;5.50;74.65
76897;SHT30;65856;52.178;21.176;2023-02-01T16:13:15;5.49;74.72
76897;SHT30;65856;52.178;21.176;2023-02-01T16:15:48;5.46;74.80
76897;SHT30;65856;52.178;21.176;2023-02-01T16:18:18;5.43;74.88
76897;SHT30;65856;52.178;21.176;2023-02-01T16:20:49;5.40;74.97
76897;SHT30;65856;52.178;21.176;2023-02-01T16:23:19;5.36;75.05
76897;SHT30;65856;52.178;21.176;2023-02-01T16:25:50;5.34;75.13
76897;SHT30;65856;52.178;21.176;2023-02-01T16:28:20;5.34;75.20
76897;SHT30;65856;52.178;21.176;2023-02-01T16:30:51;5.36;75.27
76897;SHT30;65856;52.178;21.176;2023-02-01T16:33:22;5.39;75.32
76897;SHT30;65856;52.178;21.176;2023-02-01T16:35:54;5.39;75.36
76897;SHT30;65856;52.178;21.176;2023-02-01T16:38:28;5.41;75.39
76897;SHT30;65856;52.178;21.176;2023-02-01T16:40:59;5.43;75.32
76897;SHT30;65856;52.178;21.176;2023-02-01T16:43:31;5.42;75.37
76897;SHT30;65856;52.178;21.176;2023-02-01T16:46:00;5.38;75.40
76897;SHT30;65856;52.178;21.176;2023-02-01T16:48:34;5.37;75.49
76897;SHT30;65856;52.178;21.176;2023-02-01T16:51:09;5.36;75.50
76897;SHT30;65856;52.178;21.176;2023-02-01T16:53:43;5.33;75.53
76897;SHT30;65856;52.178;21.176;2023-02-01T16:56:15;5.32;75.53